Time;durP1;ratioP1;P1;durP2;ratioP2;P2;SDS_P1;SDS_P2;PMS_P1;PMS_P2;Temp;Humidity;BMP_temperature;BMP_pressure;BME280_temperature;BME280_humidity;BME280_pressure;Samples;Min_cycle;Max_cycle;Signal;HPM_P1;HPM_P2
2022/07/06 00:00:46;;;;;;;2.67;1.40;;;;;;;17.06;64.22;101391.81;5053256;28;20208;-73
2022/07/06 00:03:12;;;;;;;2.40;1.47;;;;;;;17.14;64.16;101402.13;5053160;28;20259;-73
2022/07/06 00:05:39;;;;;;;1.93;1.40;;;;;;;17.17;64.09;101391.50;5053094;28;20300;-73
2022/07/06 00:08:05;;;;;;;1.40;1.27;;;;;;;17.04;64.30;101406.84;5052393;28;20618;-73
2022/07/06 00:10:32;;;;;;;3.30;1.27;;;;;;;16.62;65.66;101393.97;5052419;28;20259;-73
2022/07/06 00:12:59;;;;;;;1.87;1.20;;;;;;;16.37;66.99;101346.38;5052920;28;20209;-73
2022/07/06 00:15:26;;;;;;;1.37;1.27;;;;;;;16.15;67.47;101319.75;5053072;28;20213;-73
2022/07/06 00:17:52;;;;;;;5.00;1.20;;;;;;;15.96;67.79;101295.72;5045881;28;20233;-73
2022/07/06 00:20:19;;;;;;;1.63;0.97;;;;;;;15.95;68.04;101281.69;5050827;28;20205;-73
2022/07/06 00:22:45;;;;;;;1.63;1.00;;;;;;;16.09;67.79;101276.03;5052926;28;20221;-73
2022/07/06 00:25:12;;;;;;;2.03;0.93;;;;;;;16.16;67.45;101288.13;5052721;28;20286;-73
2022/07/06 00:27:38;;;;;;;2.27;1.30;;;;;;;15.90;67.70;101296.75;5052293;28;20749;-73
2022/07/06 00:30:08;;;;;;;1.83;1.10;;;;;;;15.91;67.55;101292.34;5052426;28;20212;-73
2022/07/06 00:32:34;;;;;;;2.20;1.10;;;;;;;15.71;67.61;101300.75;5052484;28;20614;-73
2022/07/06 00:35:00;;;;;;;2.10;1.27;;;;;;;15.85;67.52;101298.63;5052430;28;20836;-73
2022/07/06 00:37:27;;;;;;;1.70;0.90;;;;;;;15.68;67.50;101313.09;5052394;28;20297;-73
2022/07/06 00:39:53;;;;;;;2.90;1.27;;;;;;;15.73;67.91;101307.72;5052513;28;20208;-73
2022/07/06 00:42:20;;;;;;;2.30;1.13;;;;;;;15.86;66.80;101306.50;5052376;28;20274;-73
2022/07/06 00:44:46;;;;;;;2.37;0.90;;;;;;;15.96;67.74;101309.75;5052016;28;20759;-73
2022/07/06 00:47:14;;;;;;;1.00;0.90;;;;;;;15.95;67.13;101312.41;5050578;28;20293;-73
2022/07/06 00:52:25;;;;;;;1.80;0.90;;;;;;;16.04;66.71;101338.50;5051956;28;20579;-73
2022/07/06 00:54:52;;;;;;;2.20;1.00;;;;;;;16.12;65.88;101347.06;5052040;28;20731;-73
2022/07/06 00:57:19;;;;;;;2.23;1.00;;;;;;;16.28;66.07;101348.34;5052242;28;20232;-73
2022/07/06 00:59:45;;;;;;;2.10;1.03;;;;;;;16.36;65.61;101376.28;5052004;28;20213;-73
2022/07/06 01:02:12;;;;;;;1.80;0.93;;;;;;;15.94;65.74;101387.06;5052077;28;20302;-73
2022/07/06 01:04:39;;;;;;;3.07;1.20;;;;;;;15.95;67.07;101373.84;5051972;28;20262;-73
2022/07/06 01:07:06;;;;;;;2.30;1.47;;;;;;;16.07;66.48;101354.22;5051733;28;20652;-73
2022/07/06 01:09:33;;;;;;;1.63;1.10;;;;;;;16.16;66.42;101358.38;5051790;28;20575;-73
2022/07/06 01:11:59;;;;;;;2.70;1.17;;;;;;;16.23;66.22;101363.44;5051509;28;20338;-72
2022/07/06 01:14:26;;;;;;;2.10;1.10;;;;;;;16.37;66.77;101347.25;5051947;28;20210;-73
2022/07/06 01:16:52;;;;;;;0.90;0.90;;;;;;;16.43;65.76;101348.81;5051545;28;20682;-73
2022/07/06 01:19:19;;;;;;;2.27;1.00;;;;;;;16.31;64.81;101388.69;5043001;28;20258;-72
2022/07/06 01:21:46;;;;;;;1.73;1.07;;;;;;;16.00;65.41;101386.91;5051813;28;20224;-73
2022/07/06 01:24:13;;;;;;;1.10;0.90;;;;;;;15.66;66.64;101372.81;5052022;28;20266;-73
2022/07/06 01:26:39;;;;;;;1.87;1.17;;;;;;;15.66;67.09;101343.84;5051424;28;20286;-72
2022/07/06 01:29:06;;;;;;;1.67;1.30;;;;;;;15.41;67.36;101343.59;5051705;28;20209;-72
2022/07/06 01:31:32;;;;;;;1.30;1.10;;;;;;;15.34;67.93;101309.56;5051636;28;20220;-73
2022/07/06 01:33:59;;;;;;;1.67;1.00;;;;;;;15.38;67.94;101312.09;5051581;28;20254;-73
2022/07/06 01:36:26;;;;;;;1.10;1.00;;;;;;;15.26;68.47;101292.22;5051803;28;20208;-73
2022/07/06 01:38:56;;;;;;;2.47;1.13;;;;;;;14.97;69.53;101274.53;5051473;28;20232;-73
2022/07/06 01:41:23;;;;;;;1.93;1.17;;;;;;;14.90;70.11;101246.63;5051780;28;20266;-73
2022/07/06 01:43:50;;;;;;;1.83;0.90;;;;;;;14.84;70.65;101226.63;5051752;28;20210;-72
2022/07/06 01:46:16;;;;;;;2.73;1.20;;;;;;;14.88;70.35;101215.16;5051646;28;20266;-73
2022/07/06 01:48:43;;;;;;;1.27;1.00;;;;;;;14.86;70.30;101221.31;5042945;28;20277;-73
2022/07/06 01:51:11;;;;;;;2.33;1.23;;;;;;;14.95;70.00;101220.25;5051678;28;20551;-73
2022/07/06 01:53:38;;;;;;;2.63;1.00;;;;;;;14.88;69.68;101235.28;5051123;28;20238;-72
2022/07/06 01:56:07;;;;;;;2.70;1.00;;;;;;;14.82;69.66;101245.97;5051677;28;20255;-73
2022/07/06 01:58:33;;;;;;;2.93;1.00;;;;;;;14.85;70.18;101230.13;5051072;28;20281;-73
2022/07/06 02:01:00;;;;;;;2.63;1.30;;;;;;;14.94;69.62;101242.19;5051258;28;20211;-73
2022/07/06 02:03:26;;;;;;;1.30;1.03;;;;;;;15.08;69.11;101248.84;5051293;28;20709;-74
2022/07/06 02:05:53;;;;;;;3.60;1.77;;;;;;;14.84;69.79;101265.19;5051360;28;20207;-73
2022/07/06 02:08:19;;;;;;;2.30;1.00;;;;;;;14.69;70.05;101251.50;5050740;28;20285;-74
2022/07/06 02:10:45;;;;;;;1.53;1.10;;;;;;;15.00;69.65;101245.50;5051479;28;20216;-73
2022/07/06 02:13:13;;;;;;;1.47;1.20;;;;;;;14.81;69.86;101246.88;5050904;28;20208;-73
2022/07/06 02:15:40;;;;;;;1.03;1.03;;;;;;;14.72;69.56;101257.59;5051183;28;20266;-73
2022/07/06 02:18:07;;;;;;;2.70;1.00;;;;;;;14.63;69.21;101272.66;5042317;28;20307;-73
2022/07/06 02:20:33;;;;;;;3.53;1.07;;;;;;;14.50;69.43;101266.78;5051132;28;20305;-74
2022/07/06 02:22:59;;;;;;;2.10;1.00;;;;;;;14.47;69.84;101264.22;5051183;28;20286;-73
2022/07/06 02:25:26;;;;;;;0.87;0.83;;;;;;;14.52;69.79;101261.50;5051037;28;20217;-73
2022/07/06 02:27:52;;;;;;;2.07;1.23;;;;;;;14.45;69.67;101263.41;5050786;28;20257;-73
2022/07/06 02:30:20;;;;;;;1.37;0.90;;;;;;;14.42;70.31;101260.81;5051080;28;20212;-73
2022/07/06 02:32:47;;;;;;;6.00;1.30;;;;;;;14.33;70.48;101247.91;5051132;28;20205;-73
2022/07/06 02:35:14;;;;;;;1.60;1.00;;;;;;;14.38;70.28;101240.78;5054187;28;20614;-73
2022/07/06 02:37:40;;;;;;;1.60;1.20;;;;;;;14.46;70.65;101243.25;5054564;28;20828;-73
2022/07/06 02:40:08;;;;;;;1.30;1.20;;;;;;;14.40;70.57;101246.00;5054655;28;20671;-73
2022/07/06 02:42:34;;;;;;;1.57;1.13;;;;;;;14.29;70.93;101251.47;5054302;28;20714;-73
2022/07/06 02:45:00;;;;;;;1.80;1.10;;;;;;;14.16;71.80;101229.88;5054763;28;20209;-73
2022/07/06 02:47:28;;;;;;;1.87;1.00;;;;;;;14.24;71.78;101222.69;5050956;28;20234;-73
2022/07/06 02:49:55;;;;;;;1.20;1.00;;;;;;;14.26;71.19;101223.53;5049595;28;20757;-73
2022/07/06 02:52:22;;;;;;;2.70;1.13;;;;;;;14.23;71.36;101222.72;5054699;28;20213;-73
2022/07/06 02:54:49;;;;;;;3.33;1.60;;;;;;;14.17;71.91;101226.38;5054872;28;20258;-73
2022/07/06 02:57:16;;;;;;;3.53;1.53;;;;;;;14.15;72.23;101208.91;5054163;28;20272;-73
2022/07/06 02:59:42;;;;;;;2.47;1.10;;;;;;;14.13;72.53;101197.56;5054311;28;20226;-73
2022/07/06 03:02:09;;;;;;;0.77;0.77;;;;;;;14.15;72.20;101201.88;5054220;28;20231;-73
2022/07/06 03:04:37;;;;;;;3.07;1.10;;;;;;;14.20;72.13;101196.53;5054102;28;20676;-73
2022/07/06 03:07:04;;;;;;;5.07;1.30;;;;;;;14.35;71.64;101211.97;5054354;28;20280;-73
2022/07/06 03:09:30;;;;;;;4.57;1.20;;;;;;;14.21;72.07;101225.41;5053886;28;20680;-73
2022/07/06 03:11:56;;;;;;;1.23;0.80;;;;;;;14.21;71.84;101220.16;5053710;28;20234;-73
2022/07/06 03:14:25;;;;;;;1.67;1.00;;;;;;;14.15;72.82;101216.78;5054103;28;20621;-73
2022/07/06 03:16:51;;;;;;;2.27;1.00;;;;;;;14.13;72.87;101205.44;5053954;28;20213;-73
2022/07/06 03:19:17;;;;;;;3.10;0.90;;;;;;;14.21;72.56;101196.53;5045577;28;20204;-73
2022/07/06 03:21:45;;;;;;;2.03;1.10;;;;;;;14.20;72.83;101188.66;5053714;28;20212;-73
2022/07/06 03:24:12;;;;;;;7.77;1.33;;;;;;;14.14;73.08;101192.28;5053790;28;20769;-73
2022/07/06 03:26:38;;;;;;;4.73;1.20;;;;;;;14.32;72.67;101184.91;5053572;28;20267;-73
2022/07/06 03:29:05;;;;;;;3.53;1.27;;;;;;;14.24;72.96;101195.59;5053794;28;20211;-73
2022/07/06 03:31:31;;;;;;;4.20;1.30;;;;;;;14.26;73.14;101183.28;5053383;28;20210;-73
2022/07/06 03:33:58;;;;;;;1.90;1.27;;;;;;;14.10;74.35;101172.25;5053665;28;20228;-73
2022/07/06 03:36:24;;;;;;;1.23;0.90;;;;;;;14.05;74.51;101161.84;5053900;28;20228;-73
2022/07/06 03:38:52;;;;;;;3.07;1.07;;;;;;;13.95;74.95;101152.44;5053530;28;20230;-73
2022/07/06 03:41:19;;;;;;;3.93;1.40;;;;;;;13.94;75.44;101127.09;5053444;28;20211;-73
2022/07/06 03:43:45;;;;;;;2.70;0.90;;;;;;;13.96;75.57;101108.69;5053377;28;20227;-73
2022/07/06 03:46:11;;;;;;;4.53;0.90;;;;;;;13.97;75.37;101116.50;5052451;28;20220;-73
2022/07/06 03:48:38;;;;;;;1.60;0.87;;;;;;;13.97;75.52;101111.25;5048396;28;20755;-73
2022/07/06 03:51:06;;;;;;;2.00;1.00;;;;;;;14.03;75.63;101113.78;5043484;28;20238;-73
2022/07/06 03:53:32;;;;;;;2.50;0.80;;;;;;;14.13;75.52;101113.56;5041526;28;20201;-73
2022/07/06 03:58:44;;;;;;;3.37;1.00;;;;;;;14.25;75.77;101142.16;5042130;28;20234;-73
2022/07/06 04:01:10;;;;;;;2.53;1.17;;;;;;;14.05;75.99;101126.84;5043946;28;20266;-73
2022/07/06 04:03:36;;;;;;;3.10;1.50;;;;;;;14.06;76.60;101108.44;5041579;28;20688;-73
2022/07/06 04:06:03;;;;;;;3.43;1.17;;;;;;;14.27;76.71;101104.47;5042230;28;20203;-73
2022/07/06 04:08:30;;;;;;;4.00;1.00;;;;;;;14.03;76.52;101108.53;5039721;28;20652;-73
2022/07/06 04:10:56;;;;;;;4.77;1.50;;;;;;;14.21;76.46;101108.97;5034316;28;20207;-72
2022/07/06 04:13:25;;;;;;;3.20;1.20;;;;;;;14.31;76.08;101121.03;5042938;28;20619;-73
2022/07/06 04:15:51;;;;;;;2.63;1.00;;;;;;;14.14;76.87;101116.16;5041453;28;20211;-73
2022/07/06 04:18:18;;;;;;;5.83;1.30;;;;;;;14.27;76.44;101117.59;5046241;28;20634;-73
2022/07/06 04:20:44;;;;;;;2.97;1.00;;;;;;;14.28;75.83;101145.56;5041390;28;20211;-73
2022/07/06 04:23:11;;;;;;;2.90;1.50;;;;;;;14.36;75.16;101157.69;5043262;28;20230;-74
2022/07/06 04:25:38;;;;;;;2.30;1.00;;;;;;;14.49;75.25;101162.59;5041640;28;20270;-73
2022/07/06 04:28:05;;;;;;;2.30;1.10;;;;;;;14.65;74.26;101175.41;5041809;28;20746;-73
2022/07/06 04:30:32;;;;;;;2.27;1.30;;;;;;;14.35;74.04;101205.84;5040459;28;20219;-73
2022/07/06 04:32:59;;;;;;;1.97;0.80;;;;;;;14.42;74.75;101203.03;5042243;28;20200;-73
2022/07/06 04:35:25;;;;;;;2.47;0.97;;;;;;;14.33;74.68;101197.13;5042126;28;20204;-73
2022/07/06 04:37:52;;;;;;;2.80;0.97;;;;;;;14.46;74.66;101203.84;5040737;28;20246;-73
2022/07/06 04:40:18;;;;;;;2.43;1.00;;;;;;;14.37;75.19;101194.41;5039961;28;20201;-73
2022/07/06 04:42:45;;;;;;;1.33;1.03;;;;;;;14.26;74.64;101191.16;5042232;28;20224;-73
2022/07/06 04:45:11;;;;;;;2.83;1.30;;;;;;;14.29;74.84;101197.22;5040352;28;20729;-73
2022/07/06 04:47:39;;;;;;;4.60;1.00;;;;;;;14.39;74.47;101207.50;5044721;28;20220;-73
2022/07/06 04:50:07;;;;;;;1.30;0.87;;;;;;;14.55;74.50;101211.53;5045959;28;20200;-73
2022/07/06 04:52:33;;;;;;;1.97;1.17;;;;;;;14.55;74.21;101210.63;5040492;28;20203;-73
2022/07/06 04:55:00;;;;;;;1.60;1.00;;;;;;;14.71;73.02;101227.84;5042327;28;20660;-73
2022/07/06 04:57:29;;;;;;;1.47;0.80;;;;;;;14.79;72.44;101251.31;5041476;28;20604;-73
2022/07/06 04:59:56;;;;;;;1.97;0.80;;;;;;;15.01;72.18;101280.56;5040047;28;20287;-73
2022/07/06 05:02:22;;;;;;;1.03;0.97;;;;;;;14.64;72.86;101269.13;5041032;28;20206;-73
2022/07/06 05:04:50;;;;;;;2.10;0.90;;;;;;;14.66;73.88;101248.09;5040558;28;20706;-73
2022/07/06 05:07:16;;;;;;;3.53;0.90;;;;;;;14.50;74.18;101223.88;5042792;28;20349;-73
2022/07/06 05:09:43;;;;;;;4.63;1.10;;;;;;;14.61;74.20;101226.31;5041132;28;20199;-73
2022/07/06 05:12:10;;;;;;;3.90;1.00;;;;;;;14.58;74.00;101226.38;5040766;28;20655;-73
2022/07/06 05:14:37;;;;;;;3.17;1.27;;;;;;;14.53;74.19;101209.81;5037605;28;20196;-73
2022/07/06 05:17:04;;;;;;;3.70;1.10;;;;;;;14.44;74.32;101218.78;5043376;28;20228;-73
2022/07/06 05:19:30;;;;;;;6.77;1.40;;;;;;;14.47;74.93;101200.34;5041163;28;20266;-72
2022/07/06 05:21:58;;;;;;;3.17;1.10;;;;;;;14.67;74.14;101205.16;5037866;28;20200;-73
2022/07/06 05:24:24;;;;;;;3.83;0.90;;;;;;;14.93;73.89;101220.28;5041023;28;20700;-73
2022/07/06 05:26:51;;;;;;;4.10;1.17;;;;;;;14.94;73.51;101242.19;5039800;28;20253;-73
2022/07/06 05:29:17;;;;;;;3.93;0.97;;;;;;;15.04;73.15;101244.56;5037338;28;20622;-73
2022/07/06 05:31:44;;;;;;;4.17;1.30;;;;;;;15.17;73.03;101253.00;5040629;28;20208;-73
2022/07/06 05:34:10;;;;;;;1.53;0.90;;;;;;;15.26;72.60;101271.19;5041961;28;20205;-73
2022/07/06 05:36:36;;;;;;;3.30;1.03;;;;;;;15.04;72.73;101288.38;5039846;28;20701;-73
2022/07/06 05:39:04;;;;;;;1.80;1.33;;;;;;;15.29;72.43;101286.03;5041200;28;20204;-73
2022/07/06 05:41:31;;;;;;;3.17;1.13;;;;;;;15.44;71.82;101296.16;5039317;28;20219;-73
2022/07/06 05:43:57;;;;;;;3.43;0.90;;;;;;;15.54;71.33;101316.97;5039865;28;20294;-73
2022/07/06 05:46:23;;;;;;;3.07;1.33;;;;;;;15.66;70.68;101332.47;5045656;28;20255;-74
2022/07/06 05:51:34;;;;;;;3.93;1.17;;;;;;;15.48;70.93;101334.66;5041691;28;20208;-73
2022/07/06 05:54:00;;;;;;;4.87;1.27;;;;;;;15.43;71.39;101318.09;5041593;28;20203;-73
2022/07/06 05:56:28;;;;;;;0.97;0.80;;;;;;;15.31;71.48;101314.94;5037083;28;20286;-73
2022/07/06 05:58:55;;;;;;;2.63;1.10;;;;;;;15.45;71.15;101324.19;5041853;28;20250;-74
2022/07/06 06:01:21;;;;;;;2.27;0.97;;;;;;;15.47;71.70;101329.41;5039156;28;20212;-74
2022/07/06 06:03:47;;;;;;;2.43;1.10;;;;;;;15.62;70.80;101331.69;5041294;28;20221;-74
2022/07/06 06:06:14;;;;;;;2.80;0.80;;;;;;;15.71;70.38;101369.19;5040309;28;20208;-74
2022/07/06 06:08:41;;;;;;;3.23;1.37;;;;;;;15.61;70.22;101364.16;5042235;28;20220;-74
2022/07/06 06:11:07;;;;;;;2.53;1.20;;;;;;;15.61;70.54;101355.38;5044757;28;20667;-74
2022/07/06 06:13:35;;;;;;;2.83;1.10;;;;;;;15.67;69.89;101363.13;5043634;28;20194;-74
2022/07/06 06:16:01;;;;;;;4.83;1.10;;;;;;;15.81;70.33;101368.06;5046564;28;20201;-74
2022/07/06 06:18:28;;;;;;;6.63;1.63;;;;;;;15.70;70.74;101349.91;5049116;28;20224;-74
2022/07/06 06:20:54;;;;;;;1.97;0.90;;;;;;;15.76;71.37;101346.28;5043374;28;20197;-74
2022/07/06 06:23:21;;;;;;;4.93;1.50;;;;;;;15.64;71.39;101329.00;5045315;28;20273;-74
2022/07/06 06:25:47;;;;;;;3.17;1.10;;;;;;;15.67;71.33;101321.00;5045592;28;20245;-74
2022/07/06 06:28:13;;;;;;;2.23;1.07;;;;;;;15.58;71.56;101337.91;5042724;28;20220;-73
2022/07/06 06:30:41;;;;;;;2.77;1.00;;;;;;;15.67;71.35;101334.19;5045061;28;20208;-73
2022/07/06 06:33:09;;;;;;;1.90;1.00;;;;;;;15.54;71.84;101332.75;5045220;28;20197;-73
2022/07/06 06:35:36;;;;;;;2.10;1.00;;;;;;;15.53;71.61;101320.50;5045529;28;20613;-74
2022/07/06 06:38:02;;;;;;;3.87;1.33;;;;;;;15.58;71.12;101340.56;5043683;28;20224;-73
2022/07/06 06:40:28;;;;;;;2.87;1.10;;;;;;;15.90;69.62;101373.13;5046237;28;20267;-73
2022/07/06 06:42:55;;;;;;;2.53;0.80;;;;;;;15.91;68.03;101411.69;5045941;28;20196;-73
2022/07/06 06:45:21;;;;;;;4.07;0.80;;;;;;;15.97;67.18;101458.06;5042673;28;20224;-73
2022/07/06 06:47:49;;;;;;;2.87;1.20;;;;;;;16.18;67.08;101470.72;5047375;28;20224;-73
2022/07/06 06:50:16;;;;;;;2.90;1.00;;;;;;;16.26;66.35;101499.50;5045570;28;20206;-73
2022/07/06 06:52:42;;;;;;;2.57;0.90;;;;;;;16.10;65.82;101520.09;5045822;28;20206;-73
2022/07/06 06:55:09;;;;;;;1.97;1.07;;;;;;;15.78;66.93;101510.34;5043640;28;20734;-73
2022/07/06 06:57:36;;;;;;;1.07;0.53;;;;;;;15.72;67.12;101498.16;5044751;28;20278;-74
2022/07/06 07:00:02;;;;;;;3.70;0.90;;;;;;;15.85;67.75;101478.53;5043724;28;20201;-73
2022/07/06 07:02:29;;;;;;;1.97;0.77;;;;;;;15.99;67.36;101470.28;5043651;28;20204;-73
2022/07/06 07:04:57;;;;;;;3.57;0.93;;;;;;;16.21;66.36;101498.72;5044666;28;20631;-73
2022/07/06 07:07:23;;;;;;;4.03;0.60;;;;;;;16.41;64.26;101541.28;5042899;28;20278;-75
2022/07/06 07:09:50;;;;;;;3.23;0.90;;;;;;;16.32;63.64;101593.34;5042987;28;20661;-74
2022/07/06 07:12:17;;;;;;;3.10;0.70;;;;;;;15.98;63.66;101616.06;5044889;28;20239;-74
2022/07/06 07:14:43;;;;;;;1.53;0.90;;;;;;;16.06;64.39;101607.97;5041897;28;20226;-74
2022/07/06 07:17:10;;;;;;;1.80;0.93;;;;;;;16.31;63.61;101602.13;5044944;28;20283;-72
2022/07/06 07:19:36;;;;;;;2.93;1.07;;;;;;;16.46;63.42;101614.94;5046910;28;20196;-75
2022/07/06 07:22:04;;;;;;;2.13;0.80;;;;;;;16.56;61.89;101619.06;5041637;28;20234;-74
2022/07/06 07:24:31;;;;;;;2.27;0.97;;;;;;;16.70;61.28;101665.31;5049846;28;20286;-74
2022/07/06 07:26:57;;;;;;;0.97;0.90;;;;;;;16.31;62.75;101660.09;5044306;28;20618;-75
2022/07/06 07:29:24;;;;;;;1.80;0.80;;;;;;;16.43;62.99;101650.16;5043103;28;20278;-74
2022/07/06 07:31:50;;;;;;;1.63;0.70;;;;;;;16.40;62.96;101644.94;5042421;28;20213;-73
2022/07/06 07:34:17;;;;;;;1.50;0.80;;;;;;;16.51;62.42;101642.06;5045085;28;20247;-73
2022/07/06 07:36:43;;;;;;;1.97;1.00;;;;;;;16.40;61.08;101649.34;5042912;28;20693;-72
2022/07/06 07:39:11;;;;;;;1.53;0.60;;;;;;;16.35;60.77;101694.25;5043640;28;20229;-73
2022/07/06 07:41:37;;;;;;;2.30;0.70;;;;;;;16.44;60.50;101706.34;5044243;28;20203;-73
2022/07/06 07:44:04;;;;;;;0.97;0.60;;;;;;;16.43;60.33;101691.44;5042604;28;20873;-74
2022/07/06 07:46:30;;;;;;;1.73;0.90;;;;;;;16.47;60.23;101716.81;5045367;28;20208;-73
2022/07/06 07:48:57;;;;;;;2.67;1.00;;;;;;;16.42;61.24;101708.16;5044318;28;20262;-73
2022/07/06 07:51:23;;;;;;;3.87;0.67;;;;;;;16.50;60.48;101702.72;5043246;28;20208;-73
2022/07/06 07:53:50;;;;;;;1.13;0.80;;;;;;;16.59;60.43;101720.94;5043644;28;20193;-73
2022/07/06 07:56:17;;;;;;;1.97;0.90;;;;;;;16.53;60.58;101715.81;5041749;28;20267;-73
2022/07/06 07:58:44;;;;;;;2.63;1.00;;;;;;;16.60;59.93;101723.53;5043061;28;20220;-73
2022/07/06 08:01:10;;;;;;;2.53;0.70;;;;;;;16.79;59.71;101723.97;5043265;28;20197;-73
2022/07/06 08:03:37;;;;;;;2.23;0.80;;;;;;;16.83;58.71;101745.91;5041015;28;20256;-73
2022/07/06 08:06:04;;;;;;;1.27;0.53;;;;;;;16.84;57.94;101777.50;5043246;28;20205;-73
2022/07/06 08:08:30;;;;;;;1.27;0.77;;;;;;;16.52;58.17;101801.94;5043037;28;20282;-73
2022/07/06 08:10:56;;;;;;;3.10;1.17;;;;;;;16.63;57.79;101792.03;5041898;28;20252;-74
2022/07/06 08:13:24;;;;;;;1.17;0.80;;;;;;;16.75;58.54;101790.00;5042462;28;20551;-75
2022/07/06 08:15:51;;;;;;;0.70;0.40;;;;;;;16.90;56.87;101778.25;5043358;28;20201;-74
2022/07/06 08:18:17;;;;;;;1.33;0.53;;;;;;;17.02;56.03;101825.44;5045860;28;20266;-74
2022/07/06 08:20:43;;;;;;;0.90;0.77;;;;;;;17.17;56.53;101840.91;5042754;28;20201;-74
2022/07/06 08:23:10;;;;;;;2.03;0.80;;;;;;;17.23;56.47;101856.59;5042803;28;20247;-74
2022/07/06 08:25:36;;;;;;;1.90;0.73;;;;;;;16.88;55.49;101842.44;5041283;28;20278;-73
2022/07/06 08:28:03;;;;;;;0.97;0.57;;;;;;;16.93;55.34;101849.44;5042029;28;20605;-74
2022/07/06 08:30:34;;;;;;;1.67;0.80;;;;;;;17.12;55.98;101855.97;5041190;28;20216;-73
2022/07/06 08:33:01;;;;;;;2.40;0.60;;;;;;;17.13;56.14;101864.78;5037408;28;20198;-73
2022/07/06 08:35:27;;;;;;;1.97;0.90;;;;;;;17.25;56.12;101848.66;5040982;28;20233;-73
2022/07/06 08:37:54;;;;;;;3.27;0.60;;;;;;;17.18;56.49;101847.06;5041158;28;20225;-73
2022/07/06 08:40:20;;;;;;;3.67;0.80;;;;;;;17.11;57.78;101853.41;5040297;28;20227;-73
2022/07/06 08:42:49;;;;;;;1.47;0.60;;;;;;;17.00;56.66;101800.88;5041456;28;20250;-73
2022/07/06 08:45:17;;;;;;;0.90;0.50;;;;;;;17.15;54.00;101845.38;5042086;28;20220;-73
2022/07/06 08:47:45;;;;;;;3.47;0.80;;;;;;;17.21;53.95;101905.91;5045407;28;20233;-73
2022/07/06 08:50:11;;;;;;;0.57;0.40;;;;;;;17.12;52.85;101940.41;5042655;28;20202;-74
2022/07/06 08:52:38;;;;;;;1.37;0.40;;;;;;;17.27;51.49;101947.13;5040757;28;20614;-72
2022/07/06 08:55:06;;;;;;;1.60;0.47;;;;;;;17.27;49.47;101965.63;5044745;28;20243;-72
2022/07/06 08:57:32;;;;;;;0.90;0.33;;;;;;;17.16;47.87;102076.66;5042069;28;20224;-72
2022/07/06 08:59:59;;;;;;;1.33;0.30;;;;;;;17.37;50.23;102106.19;5037931;28;20201;-73
2022/07/06 09:02:26;;;;;;;1.70;0.60;;;;;;;17.45;50.74;102054.09;5041450;28;20949;-73
2022/07/06 09:04:57;;;;;;;0.97;0.57;;;;;;;17.41;51.06;102033.94;5042518;28;20275;-73
2022/07/06 09:07:28;;;;;;;0.90;0.40;;;;;;;17.38;49.73;102020.78;5038861;28;20288;-72
2022/07/06 09:09:55;;;;;;;0.40;0.37;;;;;;;17.26;49.22;102050.94;5040580;28;20274;-72
2022/07/06 09:12:21;;;;;;;0.40;0.40;;;;;;;17.15;50.91;102069.66;5041847;28;20201;-72
2022/07/06 09:14:48;;;;;;;2.63;0.63;;;;;;;16.94;51.69;102052.47;5041914;28;20197;-73
2022/07/06 09:17:14;;;;;;;2.33;0.50;;;;;;;17.10;52.20;102015.25;5045326;28;20737;-80
2022/07/06 09:19:41;;;;;;;1.17;0.30;;;;;;;17.25;52.51;101999.09;5047137;28;20255;-80
2022/07/06 09:22:08;;;;;;;1.90;0.60;;;;;;;17.28;52.14;101980.53;5046502;28;20202;-80
2022/07/06 09:24:42;;;;;;;0.77;0.60;;;;;;;17.09;52.57;101969.53;5043576;28;20267;-80
2022/07/06 09:27:16;;;;;;;1.10;0.50;;;;;;;17.04;52.82;101966.97;5044394;28;20286;-80
2022/07/06 09:29:43;;;;;;;1.37;0.53;;;;;;;16.74;53.78;101980.78;5041836;28;20243;-80
2022/07/06 09:32:09;;;;;;;1.47;0.70;;;;;;;16.97;53.62;101951.31;5043660;28;20216;-80
2022/07/06 09:34:47;;;;;;;2.20;0.83;;;;;;;17.06;53.52;101953.75;5058571;28;20200;-79
2022/07/06 09:37:15;;;;;;;0.80;0.70;;;;;;;17.27;52.38;101947.13;5062066;28;20246;-78
2022/07/06 09:39:43;;;;;;;1.13;0.47;;;;;;;17.57;51.86;101961.38;5047657;28;20271;-80
2022/07/06 09:42:10;;;;;;;2.43;1.00;;;;;;;17.90;51.43;101969.44;5044533;28;20197;-81
2022/07/06 09:44:38;;;;;;;2.33;0.90;;;;;;;17.74;50.85;102007.66;5048156;28;20227;-80
2022/07/06 09:47:07;;;;;;;2.80;0.67;;;;;;;17.77;51.25;102015.50;5050881;28;20252;-79
2022/07/06 09:49:33;;;;;;;1.10;0.60;;;;;;;17.76;52.01;102011.13;5052165;28;20215;-77
2022/07/06 09:52:02;;;;;;;0.70;0.63;;;;;;;17.64;52.15;101977.94;5038468;28;20262;-76
2022/07/06 09:54:30;;;;;;;2.30;0.63;;;;;;;17.55;50.93;101978.19;5045776;28;20247;-76
2022/07/06 09:56:57;;;;;;;0.67;0.67;;;;;;;17.70;51.61;101983.09;5043749;28;20250;-77
2022/07/06 09:59:26;;;;;;;1.77;0.70;;;;;;;17.68;50.85;101990.19;5045184;28;20213;-80
2022/07/06 10:01:54;;;;;;;1.70;0.60;;;;;;;17.86;51.61;101999.50;5050557;28;20219;-78
2022/07/06 10:04:21;;;;;;;1.50;0.70;;;;;;;17.67;51.70;101991.09;5048055;28;20197;-81
2022/07/06 10:06:48;;;;;;;0.90;0.60;;;;;;;17.65;52.41;101977.91;5050969;28;20262;-80
2022/07/06 10:09:15;;;;;;;4.03;0.97;;;;;;;17.59;52.00;101969.28;5050675;28;20216;-77
2022/07/06 10:11:45;;;;;;;1.10;0.60;;;;;;;17.53;52.87;101974.72;5045599;28;20205;-78
2022/07/06 10:14:15;;;;;;;1.10;0.40;;;;;;;17.52;51.53;101965.03;5046234;28;20246;-78
2022/07/06 10:16:41;;;;;;;2.13;0.70;;;;;;;17.21;52.73;101981.59;5046226;28;20208;-77
2022/07/06 10:19:09;;;;;;;1.07;0.53;;;;;;;17.13;51.71;101959.78;5049327;28;20204;-76
2022/07/06 10:21:37;;;;;;;1.90;0.50;;;;;;;17.13;51.01;101971.19;5044806;28;20209;-76
2022/07/06 10:24:05;;;;;;;2.13;0.50;;;;;;;17.09;51.57;101989.78;5046851;28;20279;-78
2022/07/06 10:26:33;;;;;;;1.50;0.40;;;;;;;17.27;49.90;101990.22;5047527;28;20265;-78
2022/07/06 10:29:03;;;;;;;1.30;0.33;;;;;;;17.42;48.62;102025.09;5042029;28;20221;-78
2022/07/06 10:31:30;;;;;;;2.00;0.50;;;;;;;17.27;48.55;102056.22;5046133;28;20568;-78
2022/07/06 10:33:58;;;;;;;2.03;0.83;;;;;;;17.21;49.63;102073.94;5047973;28;20208;-78
2022/07/06 10:36:25;;;;;;;0.73;0.50;;;;;;;17.36;49.51;102049.00;5039845;28;20561;-78
2022/07/06 10:38:53;;;;;;;0.93;0.47;;;;;;;17.31;49.23;102049.09;5037793;28;20229;-80
2022/07/06 10:41:31;;;;;;;1.57;0.60;;;;;;;17.30;48.67;102043.84;5038999;28;20264;-78
2022/07/06 10:43:58;;;;;;;0.63;0.50;;;;;;;17.46;48.47;102051.41;5038276;28;20190;-79
2022/07/06 10:46:29;;;;;;;1.50;0.47;;;;;;;17.68;48.69;102045.66;5043985;28;20228;-79
2022/07/06 10:48:57;;;;;;;0.30;0.30;;;;;;;17.88;48.30;102046.97;5050018;28;20233;-78
2022/07/06 10:51:25;;;;;;;2.33;0.40;;;;;;;17.88;48.23;102066.38;5058392;28;20212;-77
2022/07/06 10:53:57;;;;;;;1.60;0.40;;;;;;;17.88;47.29;102071.66;5057135;28;20682;-78
2022/07/06 10:56:33;;;;;;;0.83;0.40;;;;;;;18.28;46.79;102056.59;5057365;28;20666;-76
2022/07/06 10:59:03;;;;;;;0.87;0.50;;;;;;;18.36;46.28;102097.78;5058237;28;20266;-78
2022/07/06 11:01:31;;;;;;;1.43;0.40;;;;;;;18.42;47.01;102116.16;5052346;28;20210;-79
2022/07/06 11:04:09;;;;;;;0.63;0.40;;;;;;;18.27;46.70;102092.72;5047066;28;20201;-78
2022/07/06 11:06:37;;;;;;;3.80;0.60;;;;;;;17.70;47.56;102106.34;5046033;28;20244;-78
2022/07/06 11:09:05;;;;;;;1.70;0.57;;;;;;;17.75;47.98;102086.00;5056146;28;20682;-78
2022/07/06 11:11:44;;;;;;;0.67;0.50;;;;;;;17.75;48.28;102063.09;5056017;28;20209;-78
2022/07/06 11:14:13;;;;;;;1.00;0.30;;;;;;;17.44;47.60;102065.53;5056178;28;20205;-78
2022/07/06 11:17:00;;;;;;;1.47;0.60;;;;;;;17.41;48.57;102073.53;5055597;28;20266;-78
2022/07/06 11:19:27;;;;;;;1.17;0.30;;;;;;;17.61;48.13;102054.63;5047640;28;20237;-78
2022/07/06 11:21:56;;;;;;;0.80;0.40;;;;;;;17.45;48.09;102054.94;5061766;28;20201;-77
2022/07/06 11:24:24;;;;;;;0.97;0.60;;;;;;;17.30;48.67;102044.72;5061949;28;20206;-78
2022/07/06 11:26:53;;;;;;;2.23;0.50;;;;;;;17.39;48.27;102022.53;5065362;28;20228;-79
2022/07/06 11:29:22;;;;;;;0.40;0.40;;;;;;;17.22;48.39;102044.00;5056905;28;20259;-77
2022/07/06 11:31:52;;;;;;;0.63;0.60;;;;;;;17.43;48.50;102026.84;5057198;28;20627;-78